sensor_id;sensor_type;location;lat;lon;timestamp;temperature;humidity
8850;DHT22;5638;50.860;4.698;2022-12-18T00:01:23;-0.80;99.90
8850;DHT22;5638;50.860;4.698;2022-12-18T00:03:52;-0.80;99.90
8850;DHT22;5638;50.860;4.698;2022-12-18T00:06:20;-0.90;99.90
8850;DHT22;5638;50.860;4.698;2022-12-18T00:08:47;-0.90;99.90
8850;DHT22;5638;50.860;4.698;2022-12-18T00:11:15;-0.80;99.90
8850;DHT22;5638;50.860;4.698;2022-12-18T00:13:43;-0.70;99.90
8850;DHT22;5638;50.860;4.698;2022-12-18T00:16:12;-0.80;99.90
8850;DHT22;5638;50.860;4.698;2022-12-18T00:18:40;-1.10;99.90
8850;DHT22;5638;50.860;4.698;2022-12-18T00:21:09;-1.30;99.90
8850;DHT22;5638;50.860;4.698;2022-12-18T00:23:37;-1.10;99.90
8850;DHT22;5638;50.860;4.698;2022-12-18T00:26:06;-1.10;99.90
8850;DHT22;5638;50.860;4.698;2022-12-18T00:28:35;-1.00;99.90
8850;DHT22;5638;50.860;4.698;2022-12-18T00:31:06;-0.90;99.90
8850;DHT22;5638;50.860;4.698;2022-12-18T00:33:34;-0.70;99.90
8850;DHT22;5638;50.860;4.698;2022-12-18T00:36:02;-0.70;99.90
8850;DHT22;5638;50.860;4.698;2022-12-18T00:38:29;-0.80;99.90
8850;DHT22;5638;50.860;4.698;2022-12-18T00:40:55;-1.10;99.90
8850;DHT22;5638;50.860;4.698;2022-12-18T00:43:21;-1.20;99.90
8850;DHT22;5638;50.860;4.698;2022-12-18T00:45:47;-1.20;99.90
8850;DHT22;5638;50.860;4.698;2022-12-18T00:48:12;-1.20;99.90
8850;DHT22;5638;50.860;4.698;2022-12-18T00:50:38;-1.40;99.90
8850;DHT22;5638;50.860;4.698;2022-12-18T00:53:04;-1.20;99.90
8850;DHT22;5638;50.860;4.698;2022-12-18T00:55:30;-1.10;99.90
8850;DHT22;5638;50.860;4.698;2022-12-18T00:57:56;-1.00;99.90
8850;DHT22;5638;50.860;4.698;2022-12-18T01:00:22;-0.90;99.90
8850;DHT22;5638;50.860;4.698;2022-12-18T01:02:48;-0.70;99.90
8850;DHT22;5638;50.860;4.698;2022-12-18T01:05:14;-0.70;99.90
8850;DHT22;5638;50.860;4.698;2022-12-18T01:07:41;-0.80;99.90
8850;DHT22;5638;50.860;4.698;2022-12-18T01:10:08;-0.80;99.90
8850;DHT22;5638;50.860;4.698;2022-12-18T01:12:35;-0.70;99.90
8850;DHT22;5638;50.860;4.698;2022-12-18T01:15:01;-0.70;99.90
8850;DHT22;5638;50.860;4.698;2022-12-18T01:17:28;-0.60;99.90
8850;DHT22;5638;50.860;4.698;2022-12-18T01:19:54;-0.60;99.90
8850;DHT22;5638;50.860;4.698;2022-12-18T01:22:20;-0.70;99.90
8850;DHT22;5638;50.860;4.698;2022-12-18T01:24:46;-0.80;99.90
8850;DHT22;5638;50.860;4.698;2022-12-18T01:27:11;-0.80;99.90
8850;DHT22;5638;50.860;4.698;2022-12-18T01:29:37;-0.80;99.90
8850;DHT22;5638;50.860;4.698;2022-12-18T01:32:03;-0.80;99.90
8850;DHT22;5638;50.860;4.698;2022-12-18T01:34:29;-0.80;99.90
8850;DHT22;5638;50.860;4.698;2022-12-18T01:36:56;-0.90;99.90
8850;DHT22;5638;50.860;4.698;2022-12-18T01:39:22;-1.10;99.90
8850;DHT22;5638;50.860;4.698;2022-12-18T01:41:48;-1.00;99.90
8850;DHT22;5638;50.860;4.698;2022-12-18T01:47:47;-1.20;99.90
8850;DHT22;5638;50.860;4.698;2022-12-18T01:52:58;-1.50;99.90
8850;DHT22;5638;50.860;4.698;2022-12-18T01:55:28;-1.30;99.90
8850;DHT22;5638;50.860;4.698;2022-12-18T01:57:58;-1.20;99.90
8850;DHT22;5638;50.860;4.698;2022-12-18T02:00:27;-1.10;99.90
8850;DHT22;5638;50.860;4.698;2022-12-18T02:02:54;-0.90;99.90
8850;DHT22;5638;50.860;4.698;2022-12-18T02:08:34;-1.00;99.90
8850;DHT22;5638;50.860;4.698;2022-12-18T02:14:13;-1.00;99.90
8850;DHT22;5638;50.860;4.698;2022-12-18T02:17:07;-1.00;99.90
8850;DHT22;5638;50.860;4.698;2022-12-18T02:20:03;-1.10;99.90
8850;DHT22;5638;50.860;4.698;2022-12-18T02:28:45;-1.20;99.90
8850;DHT22;5638;50.860;4.698;2022-12-18T02:31:21;-1.10;99.90
8850;DHT22;5638;50.860;4.698;2022-12-18T02:33:54;-1.20;99.90
8850;DHT22;5638;50.860;4.698;2022-12-18T02:36:22;-1.30;99.90
8850;DHT22;5638;50.860;4.698;2022-12-18T02:38:52;-1.20;99.90
8850;DHT22;5638;50.860;4.698;2022-12-18T02:41:19;-1.20;99.90
8850;DHT22;5638;50.860;4.698;2022-12-18T02:43:57;-1.20;99.90
8850;DHT22;5638;50.860;4.698;2022-12-18T02:46:36;-1.10;99.90
8850;DHT22;5638;50.860;4.698;2022-12-18T02:51:48;-1.20;99.90
8850;DHT22;5638;50.860;4.698;2022-12-18T02:54:45;-1.30;99.90
8850;DHT22;5638;50.860;4.698;2022-12-18T02:57:40;-1.30;99.90
8850;DHT22;5638;50.860;4.698;2022-12-18T03:00:14;-1.40;99.90
8850;DHT22;5638;50.860;4.698;2022-12-18T03:03:05;-1.60;99.90
8850;DHT22;5638;50.860;4.698;2022-12-18T03:05:47;-1.70;99.90
8850;DHT22;5638;50.860;4.698;2022-12-18T03:08:26;-1.50;99.90
8850;DHT22;5638;50.860;4.698;2022-12-18T03:11:01;-1.40;99.90
8850;DHT22;5638;50.860;4.698;2022-12-18T03:13:53;-1.40;99.90
8850;DHT22;5638;50.860;4.698;2022-12-18T03:16:28;-1.40;99.90
8850;DHT22;5638;50.860;4.698;2022-12-18T03:19:01;-1.50;99.90
8850;DHT22;5638;50.860;4.698;2022-12-18T03:21:52;-1.50;99.90
8850;DHT22;5638;50.860;4.698;2022-12-18T03:24:21;-1.70;99.90
8850;DHT22;5638;50.860;4.698;2022-12-18T03:26:53;-1.80;99.90
8850;DHT22;5638;50.860;4.698;2022-12-18T03:29:30;-1.60;99.90
8850;DHT22;5638;50.860;4.698;2022-12-18T03:32:09;-1.70;99.90
8850;DHT22;5638;50.860;4.698;2022-12-18T03:34:42;-1.70;99.90
8850;DHT22;5638;50.860;4.698;2022-12-18T03:37:13;-1.70;99.90
8850;DHT22;5638;50.860;4.698;2022-12-18T03:39:39;-1.60;99.90
8850;DHT22;5638;50.860;4.698;2022-12-18T03:42:14;-1.60;99.90
8850;DHT22;5638;50.860;4.698;2022-12-18T03:51:05;-1.50;99.90
8850;DHT22;5638;50.860;4.698;2022-12-18T03:53:50;-1.60;99.90
8850;DHT22;5638;50.860;4.698;2022-12-18T03:56:18;-1.50;99.90
8850;DHT22;5638;50.860;4.698;2022-12-18T03:58:48;-1.60;99.90
8850;DHT22;5638;50.860;4.698;2022-12-18T04:01:20;-1.60;99.90
8850;DHT22;5638;50.860;4.698;2022-12-18T04:03:52;-1.70;99.90
8850;DHT22;5638;50.860;4.698;2022-12-18T04:06:20;-1.70;99.90
8850;DHT22;5638;50.860;4.698;2022-12-18T04:08:47;-1.60;99.90
8850;DHT22;5638;50.860;4.698;2022-12-18T04:11:13;-1.70;99.90
8850;DHT22;5638;50.860;4.698;2022-12-18T04:13:42;-1.70;99.90
8850;DHT22;5638;50.860;4.698;2022-12-18T04:16:08;-1.70;99.90
8850;DHT22;5638;50.860;4.698;2022-12-18T04:18:35;-1.60;99.90
8850;DHT22;5638;50.860;4.698;2022-12-18T04:21:01;-1.50;99.90
8850;DHT22;5638;50.860;4.698;2022-12-18T04:23:27;-1.60;99.90
8850;DHT22;5638;50.860;4.698;2022-12-18T04:25:53;-1.70;99.90
8850;DHT22;5638;50.860;4.698;2022-12-18T04:28:20;-1.80;99.90
8850;DHT22;5638;50.860;4.698;2022-12-18T04:30:47;-2.00;99.90
8850;DHT22;5638;50.860;4.698;2022-12-18T04:33:13;-2.00;99.90
8850;DHT22;5638;50.860;4.698;2022-12-18T04:35:40;-2.00;99.90
8850;DHT22;5638;50.860;4.698;2022-12-18T04:38:07;-1.90;99.90
8850;DHT22;5638;50.860;4.698;2022-12-18T04:40:34;-1.90;99.90
8850;DHT22;5638;50.860;4.698;2022-12-18T04:43:00;-1.80;99.90
8850;DHT22;5638;50.860;4.698;2022-12-18T04:45:26;-1.80;99.90
8850;DHT22;5638;50.860;4.698;2022-12-18T04:47:51;-1.80;99.90
8850;DHT22;5638;50.860;4.698;2022-12-18T04:50:17;-1.80;99.90
8850;DHT22;5638;50.860;4.698;2022-12-18T04:52:43;-1.70;99.90
8850;DHT22;5638;50.860;4.698;2022-12-18T04:55:09;-1.70;99.90
8850;DHT22;5638;50.860;4.698;2022-12-18T04:57:35;-1.90;99.90
8850;DHT22;5638;50.860;4.698;2022-12-18T05:00:01;-1.90;99.90
8850;DHT22;5638;50.860;4.698;2022-12-18T05:02:27;-1.90;99.90
8850;DHT22;5638;50.860;4.698;2022-12-18T05:04:53;-1.80;99.90
8850;DHT22;5638;50.860;4.698;2022-12-18T05:07:19;-1.80;99.90
8850;DHT22;5638;50.860;4.698;2022-12-18T05:09:44;-1.80;99.90
8850;DHT22;5638;50.860;4.698;2022-12-18T05:12:10;-1.90;99.90
8850;DHT22;5638;50.860;4.698;2022-12-18T05:14:36;-1.80;99.90
8850;DHT22;5638;50.860;4.698;2022-12-18T05:17:02;-1.80;99.90
8850;DHT22;5638;50.860;4.698;2022-12-18T05:19:28;-1.80;99.90
8850;DHT22;5638;50.860;4.698;2022-12-18T05:21:53;-1.80;99.90
8850;DHT22;5638;50.860;4.698;2022-12-18T05:24:19;-1.80;99.90
8850;DHT22;5638;50.860;4.698;2022-12-18T05:26:45;-1.70;99.90
8850;DHT22;5638;50.860;4.698;2022-12-18T05:29:11;-1.70;99.90
8850;DHT22;5638;50.860;4.698;2022-12-18T05:31:38;-1.80;99.90
8850;DHT22;5638;50.860;4.698;2022-12-18T05:34:04;-1.80;99.90
8850;DHT22;5638;50.860;4.698;2022-12-18T05:36:31;-2.00;99.90
8850;DHT22;5638;50.860;4.698;2022-12-18T05:38:57;-2.10;99.90
8850;DHT22;5638;50.860;4.698;2022-12-18T05:41:24;-2.30;99.90
8850;DHT22;5638;50.860;4.698;2022-12-18T05:43:50;-2.30;99.90
8850;DHT22;5638;50.860;4.698;2022-12-18T05:46:17;-2.40;99.90
8850;DHT22;5638;50.860;4.698;2022-12-18T05:48:44;-2.30;99.90
8850;DHT22;5638;50.860;4.698;2022-12-18T05:51:14;-2.20;99.90
8850;DHT22;5638;50.860;4.698;2022-12-18T05:53:42;-2.10;99.90
8850;DHT22;5638;50.860;4.698;2022-12-18T05:56:11;-2.10;99.90
8850;DHT22;5638;50.860;4.698;2022-12-18T05:58:40;-2.00;99.90
8850;DHT22;5638;50.860;4.698;2022-12-18T06:01:12;-2.20;99.90
8850;DHT22;5638;50.860;4.698;2022-12-18T06:03:43;-2.20;99.90
8850;DHT22;5638;50.860;4.698;2022-12-18T06:06:28;-2.20;99.90
8850;DHT22;5638;50.860;4.698;2022-12-18T06:08:55;-2.10;99.90
8850;DHT22;5638;50.860;4.698;2022-12-18T06:11:23;-2.00;99.90
8850;DHT22;5638;50.860;4.698;2022-12-18T06:13:53;-2.10;99.90
8850;DHT22;5638;50.860;4.698;2022-12-18T06:16:20;-2.10;99.90
8850;DHT22;5638;50.860;4.698;2022-12-18T06:18:46;-2.10;99.90
8850;DHT22;5638;50.860;4.698;2022-12-18T06:21:13;-2.10;99.90
8850;DHT22;5638;50.860;4.698;2022-12-18T06:23:39;-2.20;99.90
8850;DHT22;5638;50.860;4.698;2022-12-18T06:26:06;-2.20;99.90
8850;DHT22;5638;50.860;4.698;2022-12-18T06:28:34;-2.30;99.90
8850;DHT22;5638;50.860;4.698;2022-12-18T06:31:00;-2.20;99.90
8850;DHT22;5638;50.860;4.698;2022-12-18T06:33:27;-2.10;99.90
8850;DHT22;5638;50.860;4.698;2022-12-18T06:35:58;-2.10;99.90
8850;DHT22;5638;50.860;4.698;2022-12-18T06:38:29;-2.00;99.90
8850;DHT22;5638;50.860;4.698;2022-12-18T06:40:56;-2.10;99.90
8850;DHT22;5638;50.860;4.698;2022-12-18T06:43:23;-2.10;99.90
8850;DHT22;5638;50.860;4.698;2022-12-18T06:45:49;-2.10;99.90
8850;DHT22;5638;50.860;4.698;2022-12-18T06:48:21;-2.00;99.90
8850;DHT22;5638;50.860;4.698;2022-12-18T06:50:49;-2.00;99.90
8850;DHT22;5638;50.860;4.698;2022-12-18T06:53:14;-2.00;99.90
8850;DHT22;5638;50.860;4.698;2022-12-18T06:55:40;-2.00;99.90
8850;DHT22;5638;50.860;4.698;2022-12-18T06:58:06;-2.00;99.90
8850;DHT22;5638;50.860;4.698;2022-12-18T07:00:32;-2.00;99.90
8850;DHT22;5638;50.860;4.698;2022-12-18T07:02:58;-2.10;99.90
8850;DHT22;5638;50.860;4.698;2022-12-18T07:05:24;-2.10;99.90
8850;DHT22;5638;50.860;4.698;2022-12-18T07:07:49;-2.10;99.90
8850;DHT22;5638;50.860;4.698;2022-12-18T07:10:15;-2.10;99.90
8850;DHT22;5638;50.860;4.698;2022-12-18T07:12:41;-2.00;99.90
8850;DHT22;5638;50.860;4.698;2022-12-18T07:15:07;-2.00;99.90
8850;DHT22;5638;50.860;4.698;2022-12-18T07:17:33;-2.00;99.90
8850;DHT22;5638;50.860;4.698;2022-12-18T07:19:59;-1.90;99.90
8850;DHT22;5638;50.860;4.698;2022-12-18T07:22:25;-1.90;99.90
8850;DHT22;5638;50.860;4.698;2022-12-18T07:24:51;-1.90;99.90
8850;DHT22;5638;50.860;4.698;2022-12-18T07:27:17;-1.80;99.90
8850;DHT22;5638;50.860;4.698;2022-12-18T07:29:43;-1.80;99.90
8850;DHT22;5638;50.860;4.698;2022-12-18T07:32:09;-1.70;99.90
8850;DHT22;5638;50.860;4.698;2022-12-18T07:34:35;-1.70;99.90
8850;DHT22;5638;50.860;4.698;2022-12-18T07:37:01;-1.70;99.90
8850;DHT22;5638;50.860;4.698;2022-12-18T07:39:27;-1.60;99.90
8850;DHT22;5638;50.860;4.698;2022-12-18T07:41:53;-1.60;99.90
8850;DHT22;5638;50.860;4.698;2022-12-18T07:44:37;-1.50;99.90
8850;DHT22;5638;50.860;4.698;2022-12-18T07:47:03;-1.60;99.90
8850;DHT22;5638;50.860;4.698;2022-12-18T07:49:29;-1.60;99.90
8850;DHT22;5638;50.860;4.698;2022-12-18T07:51:55;-1.70;99.90
8850;DHT22;5638;50.860;4.698;2022-12-18T07:54:23;-1.70;99.90
8850;DHT22;5638;50.860;4.698;2022-12-18T07:56:50;-1.70;99.90
8850;DHT22;5638;50.860;4.698;2022-12-18T07:59:17;-1.70;99.90
8850;DHT22;5638;50.860;4.698;2022-12-18T08:01:44;-1.70;99.90
8850;DHT22;5638;50.860;4.698;2022-12-18T08:04:10;-1.60;99.90
8850;DHT22;5638;50.860;4.698;2022-12-18T08:06:36;-1.60;99.90
8850;DHT22;5638;50.860;4.698;2022-12-18T08:09:02;-1.60;99.90
8850;DHT22;5638;50.860;4.698;2022-12-18T08:11:28;-1.60;99.90
8850;DHT22;5638;50.860;4.698;2022-12-18T08:13:55;-1.60;99.90
8850;DHT22;5638;50.860;4.698;2022-12-18T08:16:22;-1.80;99.90
8850;DHT22;5638;50.860;4.698;2022-12-18T08:18:48;-1.80;99.90
8850;DHT22;5638;50.860;4.698;2022-12-18T08:21:17;-1.70;99.90
8850;DHT22;5638;50.860;4.698;2022-12-18T08:23:46;-1.50;99.90
8850;DHT22;5638;50.860;4.698;2022-12-18T08:26:13;-1.10;99.90
8850;DHT22;5638;50.860;4.698;2022-12-18T08:28:40;-0.60;99.90
8850;DHT22;5638;50.860;4.698;2022-12-18T08:31:06;-0.20;99.90
8850;DHT22;5638;50.860;4.698;2022-12-18T08:33:33;0.40;99.90
8850;DHT22;5638;50.860;4.698;2022-12-18T08:36:00;0.80;99.90
8850;DHT22;5638;50.860;4.698;2022-12-18T08:38:27;1.00;99.90
8850;DHT22;5638;50.860;4.698;2022-12-18T08:41:06;1.40;99.90
8850;DHT22;5638;50.860;4.698;2022-12-18T08:43:34;1.70;99.90
8850;DHT22;5638;50.860;4.698;2022-12-18T08:46:20;2.10;99.90
8850;DHT22;5638;50.860;4.698;2022-12-18T08:48:47;2.10;99.90
8850;DHT22;5638;50.860;4.698;2022-12-18T08:51:16;2.00;99.90
8850;DHT22;5638;50.860;4.698;2022-12-18T08:53:43;1.50;99.90
8850;DHT22;5638;50.860;4.698;2022-12-18T08:56:10;1.20;99.90
8850;DHT22;5638;50.860;4.698;2022-12-18T08:58:40;0.90;99.90
8850;DHT22;5638;50.860;4.698;2022-12-18T09:01:09;0.80;99.90
8850;DHT22;5638;50.860;4.698;2022-12-18T09:03:36;0.90;99.90
8850;DHT22;5638;50.860;4.698;2022-12-18T09:06:03;1.00;99.90
8850;DHT22;5638;50.860;4.698;2022-12-18T09:08:30;1.10;99.90
8850;DHT22;5638;50.860;4.698;2022-12-18T09:10:56;1.10;99.90
8850;DHT22;5638;50.860;4.698;2022-12-18T09:13:22;1.10;99.90
8850;DHT22;5638;50.860;4.698;2022-12-18T09:15:53;1.10;99.90
8850;DHT22;5638;50.860;4.698;2022-12-18T09:18:22;1.00;99.90
8850;DHT22;5638;50.860;4.698;2022-12-18T09:20:49;1.00;99.90
8850;DHT22;5638;50.860;4.698;2022-12-18T09:23:18;1.00;99.90
8850;DHT22;5638;50.860;4.698;2022-12-18T09:25:45;1.20;99.90
8850;DHT22;5638;50.860;4.698;2022-12-18T09:28:15;1.30;99.90
8850;DHT22;5638;50.860;4.698;2022-12-18T09:30:45;1.30;99.90
8850;DHT22;5638;50.860;4.698;2022-12-18T09:33:13;1.30;99.90
8850;DHT22;5638;50.860;4.698;2022-12-18T09:35:40;1.30;99.90
8850;DHT22;5638;50.860;4.698;2022-12-18T09:38:12;1.30;99.90
8850;DHT22;5638;50.860;4.698;2022-12-18T09:40:52;1.30;99.90
8850;DHT22;5638;50.860;4.698;2022-12-18T09:43:35;1.30;99.90
8850;DHT22;5638;50.860;4.698;2022-12-18T09:46:10;1.20;99.90
8850;DHT22;5638;50.860;4.698;2022-12-18T09:48:52;1.00;99.90
8850;DHT22;5638;50.860;4.698;2022-12-18T09:52:00;1.10;99.90
8850;DHT22;5638;50.860;4.698;2022-12-18T09:54:40;1.10;99.90
8850;DHT22;5638;50.860;4.698;2022-12-18T09:57:20;1.20;99.90
8850;DHT22;5638;50.860;4.698;2022-12-18T09:59:54;1.10;99.90
8850;DHT22;5638;50.860;4.698;2022-12-18T10:02:25;1.20;99.90
8850;DHT22;5638;50.860;4.698;2022-12-18T10:05:11;1.30;99.90
8850;DHT22;5638;50.860;4.698;2022-12-18T10:08:02;1.20;99.90
8850;DHT22;5638;50.860;4.698;2022-12-18T10:10:51;1.20;99.90
8850;DHT22;5638;50.860;4.698;2022-12-18T10:16:19;1.30;99.90
8850;DHT22;5638;50.860;4.698;2022-12-18T10:19:04;1.20;99.90
8850;DHT22;5638;50.860;4.698;2022-12-18T10:27:26;1.20;99.90
8850;DHT22;5638;50.860;4.698;2022-12-18T10:29:53;1.10;99.90
8850;DHT22;5638;50.860;4.698;2022-12-18T10:32:26;1.30;99.90
8850;DHT22;5638;50.860;4.698;2022-12-18T10:34:55;1.20;99.90
8850;DHT22;5638;50.860;4.698;2022-12-18T10:37:27;1.10;99.90
8850;DHT22;5638;50.860;4.698;2022-12-18T10:40:13;1.20;99.90
8850;DHT22;5638;50.860;4.698;2022-12-18T10:42:41;1.20;99.90
8850;DHT22;5638;50.860;4.698;2022-12-18T10:45:15;1.40;99.90
8850;DHT22;5638;50.860;4.698;2022-12-18T10:47:52;1.40;99.90
8850;DHT22;5638;50.860;4.698;2022-12-18T10:50:30;1.50;99.90
8850;DHT22;5638;50.860;4.698;2022-12-18T10:53:01;1.40;99.90
8850;DHT22;5638;50.860;4.698;2022-12-18T10:55:39;1.40;99.90
8850;DHT22;5638;50.860;4.698;2022-12-18T10:58:32;1.50;99.90
8850;DHT22;5638;50.860;4.698;2022-12-18T11:01:14;1.50;99.90
8850;DHT22;5638;50.860;4.698;2022-12-18T11:03:58;1.40;99.90
8850;DHT22;5638;50.860;4.698;2022-12-18T11:06:26;1.50;99.90
8850;DHT22;5638;50.860;4.698;2022-12-18T11:08:59;1.50;99.90
8850;DHT22;5638;50.860;4.698;2022-12-18T11:11:31;1.70;99.90
8850;DHT22;5638;50.860;4.698;2022-12-18T11:14:06;1.60;99.90
8850;DHT22;5638;50.860;4.698;2022-12-18T11:16:47;1.70;99.90
8850;DHT22;5638;50.860;4.698;2022-12-18T11:22:21;2.00;99.90
8850;DHT22;5638;50.860;4.698;2022-12-18T11:25:16;2.10;99.90
8850;DHT22;5638;50.860;4.698;2022-12-18T11:27:49;2.20;99.90
8850;DHT22;5638;50.860;4.698;2022-12-18T11:30:25;2.10;99.90
8850;DHT22;5638;50.860;4.698;2022-12-18T11:38:42;2.30;99.90
8850;DHT22;5638;50.860;4.698;2022-12-18T11:41:25;2.40;99.90
8850;DHT22;5638;50.860;4.698;2022-12-18T11:44:41;2.30;99.90
8850;DHT22;5638;50.860;4.698;2022-12-18T11:50:23;2.50;99.90
8850;DHT22;5638;50.860;4.698;2022-12-18T11:53:02;2.60;99.90
8850;DHT22;5638;50.860;4.698;2022-12-18T12:01:50;2.80;99.90
8850;DHT22;5638;50.860;4.698;2022-12-18T12:10:26;3.00;99.90
8850;DHT22;5638;50.860;4.698;2022-12-18T12:16:36;3.00;99.90
8850;DHT22;5638;50.860;4.698;2022-12-18T12:19:30;3.00;99.90
8850;DHT22;5638;50.860;4.698;2022-12-18T12:31:13;3.20;99.90
8850;DHT22;5638;50.860;4.698;2022-12-18T12:39:44;3.00;99.90
8850;DHT22;5638;50.860;4.698;2022-12-18T12:42:42;2.90;99.90
8850;DHT22;5638;50.860;4.698;2022-12-18T12:45:48;3.10;99.90
8850;DHT22;5638;50.860;4.698;2022-12-18T12:51:34;3.40;99.90
8850;DHT22;5638;50.860;4.698;2022-12-18T12:54:11;3.60;99.90
8850;DHT22;5638;50.860;4.698;2022-12-18T12:56:52;3.70;99.90
8850;DHT22;5638;50.860;4.698;2022-12-18T13:02:19;3.80;99.90
8850;DHT22;5638;50.860;4.698;2022-12-18T13:04:54;3.90;99.90
8850;DHT22;5638;50.860;4.698;2022-12-18T13:07:32;4.00;99.90
8850;DHT22;5638;50.860;4.698;2022-12-18T13:15:46;4.10;99.90
8850;DHT22;5638;50.860;4.698;2022-12-18T13:18:29;4.10;99.90
8850;DHT22;5638;50.860;4.698;2022-12-18T13:31:14;4.10;99.90
8850;DHT22;5638;50.860;4.698;2022-12-18T13:34:24;4.10;99.90
8850;DHT22;5638;50.860;4.698;2022-12-18T13:36:53;4.10;99.90
8850;DHT22;5638;50.860;4.698;2022-12-18T13:39:23;4.10;99.90
8850;DHT22;5638;50.860;4.698;2022-12-18T13:44:39;4.10;99.90
8850;DHT22;5638;50.860;4.698;2022-12-18T13:47:31;4.00;99.90
8850;DHT22;5638;50.860;4.698;2022-12-18T13:50:00;4.10;99.90
8850;DHT22;5638;50.860;4.698;2022-12-18T13:52:37;4.10;99.90
8850;DHT22;5638;50.860;4.698;2022-12-18T13:55:10;4.20;99.90
8850;DHT22;5638;50.860;4.698;2022-12-18T13:57:42;4.10;99.90
8850;DHT22;5638;50.860;4.698;2022-12-18T14:02:51;4.00;99.90
8850;DHT22;5638;50.860;4.698;2022-12-18T14:05:25;4.10;99.90
8850;DHT22;5638;50.860;4.698;2022-12-18T14:08:05;4.00;99.90
8850;DHT22;5638;50.860;4.698;2022-12-18T14:10:43;4.00;99.90
8850;DHT22;5638;50.860;4.698;2022-12-18T14:13:23;3.90;99.90
8850;DHT22;5638;50.860;4.698;2022-12-18T14:15:53;3.90;99.90
8850;DHT22;5638;50.860;4.698;2022-12-18T14:21:03;4.10;99.90
8850;DHT22;5638;50.860;4.698;2022-12-18T14:26:01;4.00;99.90
8850;DHT22;5638;50.860;4.698;2022-12-18T14:28:28;4.10;99.90
8850;DHT22;5638;50.860;4.698;2022-12-18T14:30:55;4.30;99.90
8850;DHT22;5638;50.860;4.698;2022-12-18T14:33:24;4.30;99.90
8850;DHT22;5638;50.860;4.698;2022-12-18T14:36:01;4.30;99.90
8850;DHT22;5638;50.860;4.698;2022-12-18T14:38:37;4.30;99.90
8850;DHT22;5638;50.860;4.698;2022-12-18T14:41:15;4.20;99.90
8850;DHT22;5638;50.860;4.698;2022-12-18T14:43:44;4.10;99.90
8850;DHT22;5638;50.860;4.698;2022-12-18T14:46:38;4.20;99.90
8850;DHT22;5638;50.860;4.698;2022-12-18T14:49:33;4.20;99.90
8850;DHT22;5638;50.860;4.698;2022-12-18T14:52:02;4.10;99.90
8850;DHT22;5638;50.860;4.698;2022-12-18T14:54:31;4.00;99.90
8850;DHT22;5638;50.860;4.698;2022-12-18T14:57:05;4.00;99.90
8850;DHT22;5638;50.860;4.698;2022-12-18T14:59:45;4.10;99.90
8850;DHT22;5638;50.860;4.698;2022-12-18T15:02:27;4.00;99.90
8850;DHT22;5638;50.860;4.698;2022-12-18T15:07:43;4.00;99.90
8850;DHT22;5638;50.860;4.698;2022-12-18T15:10:34;3.90;99.90
8850;DHT22;5638;50.860;4.698;2022-12-18T15:21:08;3.90;99.90
8850;DHT22;5638;50.860;4.698;2022-12-18T15:23:52;3.80;99.90
8850;DHT22;5638;50.860;4.698;2022-12-18T15:26:22;3.80;99.90
8850;DHT22;5638;50.860;4.698;2022-12-18T15:28:55;3.80;99.90
8850;DHT22;5638;50.860;4.698;2022-12-18T15:31:34;3.80;99.90
8850;DHT22;5638;50.860;4.698;2022-12-18T15:36:40;3.60;99.90
8850;DHT22;5638;50.860;4.698;2022-12-18T15:39:06;3.70;99.90
8850;DHT22;5638;50.860;4.698;2022-12-18T15:41:33;3.70;99.90
8850;DHT22;5638;50.860;4.698;2022-12-18T15:44:00;3.60;99.90
8850;DHT22;5638;50.860;4.698;2022-12-18T15:46:26;3.70;99.90
8850;DHT22;5638;50.860;4.698;2022-12-18T15:48:57;3.90;99.90
8850;DHT22;5638;50.860;4.698;2022-12-18T15:51:29;3.70;99.90
8850;DHT22;5638;50.860;4.698;2022-12-18T15:54:05;3.70;99.90
8850;DHT22;5638;50.860;4.698;2022-12-18T15:56:35;3.70;99.90
8850;DHT22;5638;50.860;4.698;2022-12-18T15:59:20;3.80;99.90
8850;DHT22;5638;50.860;4.698;2022-12-18T16:01:48;3.90;99.90
8850;DHT22;5638;50.860;4.698;2022-12-18T16:04:18;3.70;99.90
8850;DHT22;5638;50.860;4.698;2022-12-18T16:06:46;3.80;99.90
8850;DHT22;5638;50.860;4.698;2022-12-18T16:09:12;3.80;99.90
8850;DHT22;5638;50.860;4.698;2022-12-18T16:11:40;3.80;99.90
8850;DHT22;5638;50.860;4.698;2022-12-18T16:14:22;3.80;99.90
8850;DHT22;5638;50.860;4.698;2022-12-18T16:16:59;3.70;99.90
8850;DHT22;5638;50.860;4.698;2022-12-18T16:19:27;3.70;99.90
8850;DHT22;5638;50.860;4.698;2022-12-18T16:21:56;3.80;99.90
8850;DHT22;5638;50.860;4.698;2022-12-18T16:24:25;3.70;99.90
8850;DHT22;5638;50.860;4.698;2022-12-18T16:26:54;3.60;99.90
8850;DHT22;5638;50.860;4.698;2022-12-18T16:29:21;3.40;99.90
8850;DHT22;5638;50.860;4.698;2022-12-18T16:31:50;3.50;99.90
8850;DHT22;5638;50.860;4.698;2022-12-18T16:34:28;3.50;99.90
8850;DHT22;5638;50.860;4.698;2022-12-18T16:37:00;3.60;99.90
8850;DHT22;5638;50.860;4.698;2022-12-18T16:39:28;3.40;99.90
8850;DHT22;5638;50.860;4.698;2022-12-18T16:41:55;3.40;99.90
8850;DHT22;5638;50.860;4.698;2022-12-18T16:44:22;3.30;99.90
8850;DHT22;5638;50.860;4.698;2022-12-18T16:46:48;3.30;99.90
8850;DHT22;5638;50.860;4.698;2022-12-18T16:49:15;3.30;99.90
8850;DHT22;5638;50.860;4.698;2022-12-18T16:51:43;3.20;99.90
8850;DHT22;5638;50.860;4.698;2022-12-18T16:54:10;3.40;99.90
8850;DHT22;5638;50.860;4.698;2022-12-18T16:56:36;3.40;99.90
8850;DHT22;5638;50.860;4.698;2022-12-18T16:59:02;3.40;99.90
8850;DHT22;5638;50.860;4.698;2022-12-18T17:01:31;3.40;99.90
8850;DHT22;5638;50.860;4.698;2022-12-18T17:04:00;3.40;99.90
8850;DHT22;5638;50.860;4.698;2022-12-18T17:06:30;3.50;99.90
8850;DHT22;5638;50.860;4.698;2022-12-18T17:08:58;3.60;99.90
8850;DHT22;5638;50.860;4.698;2022-12-18T17:11:29;3.60;99.90
8850;DHT22;5638;50.860;4.698;2022-12-18T17:13:57;3.60;99.90
8850;DHT22;5638;50.860;4.698;2022-12-18T17:16:23;3.50;99.90
8850;DHT22;5638;50.860;4.698;2022-12-18T17:18:52;3.60;99.90
8850;DHT22;5638;50.860;4.698;2022-12-18T17:21:20;3.60;99.90
8850;DHT22;5638;50.860;4.698;2022-12-18T17:23:45;3.50;99.90
8850;DHT22;5638;50.860;4.698;2022-12-18T17:26:12;3.50;99.90
8850;DHT22;5638;50.860;4.698;2022-12-18T17:28:39;3.60;99.90
8850;DHT22;5638;50.860;4.698;2022-12-18T17:31:17;3.70;99.90
8850;DHT22;5638;50.860;4.698;2022-12-18T17:33:45;3.60;99.90
8850;DHT22;5638;50.860;4.698;2022-12-18T17:36:11;3.70;99.90
8850;DHT22;5638;50.860;4.698;2022-12-18T17:38:38;3.80;99.90
8850;DHT22;5638;50.860;4.698;2022-12-18T17:41:06;3.90;99.90
8850;DHT22;5638;50.860;4.698;2022-12-18T17:43:33;3.80;99.90
8850;DHT22;5638;50.860;4.698;2022-12-18T17:46:05;3.90;99.90
8850;DHT22;5638;50.860;4.698;2022-12-18T17:48:32;3.90;99.90
8850;DHT22;5638;50.860;4.698;2022-12-18T17:51:02;3.80;99.90
8850;DHT22;5638;50.860;4.698;2022-12-18T17:53:29;3.70;99.90
8850;DHT22;5638;50.860;4.698;2022-12-18T17:55:56;3.70;99.90
8850;DHT22;5638;50.860;4.698;2022-12-18T17:58:29;3.70;99.90
8850;DHT22;5638;50.860;4.698;2022-12-18T18:00:55;3.80;99.90
8850;DHT22;5638;50.860;4.698;2022-12-18T18:03:21;3.80;99.90
8850;DHT22;5638;50.860;4.698;2022-12-18T18:05:47;3.80;99.90
8850;DHT22;5638;50.860;4.698;2022-12-18T18:08:13;3.80;99.90
8850;DHT22;5638;50.860;4.698;2022-12-18T18:10:39;3.80;99.90
8850;DHT22;5638;50.860;4.698;2022-12-18T18:13:17;3.90;99.90
8850;DHT22;5638;50.860;4.698;2022-12-18T18:16:04;4.10;99.90
8850;DHT22;5638;50.860;4.698;2022-12-18T18:18:30;4.10;99.90
8850;DHT22;5638;50.860;4.698;2022-12-18T18:20:56;4.10;99.90
8850;DHT22;5638;50.860;4.698;2022-12-18T18:23:25;4.00;99.90
8850;DHT22;5638;50.860;4.698;2022-12-18T18:26:00;4.00;99.90
8850;DHT22;5638;50.860;4.698;2022-12-18T18:28:27;3.90;99.90
8850;DHT22;5638;50.860;4.698;2022-12-18T18:30:54;3.80;99.90
8850;DHT22;5638;50.860;4.698;2022-12-18T18:33:20;3.70;99.90
8850;DHT22;5638;50.860;4.698;2022-12-18T18:35:46;3.80;99.90
8850;DHT22;5638;50.860;4.698;2022-12-18T18:38:12;3.70;99.90
8850;DHT22;5638;50.860;4.698;2022-12-18T18:40:38;3.80;99.90